sensor_id;sensor_type;location;lat;lon;timestamp;pressure;altitude;pressure_sealevel;temperature;humidity
30873;BME280;17579;42.690;2.586;2023-01-25T00:00:18;98148.63;;;3.44;61.81
30873;BME280;17579;42.690;2.586;2023-01-25T00:02:44;98149.63;;;3.41;61.95
30873;BME280;17579;42.690;2.586;2023-01-25T00:05:09;98142.56;;;3.43;62.11
30873;BME280;17579;42.690;2.586;2023-01-25T00:07:35;98142.50;;;3.45;61.94
30873;BME280;17579;42.690;2.586;2023-01-25T00:10:00;98151.09;;;3.47;62.03
30873;BME280;17579;42.690;2.586;2023-01-25T00:12:26;98147.66;;;3.46;61.81
30873;BME280;17579;42.690;2.586;2023-01-25T00:14:52;98156.16;;;3.50;61.96
30873;BME280;17579;42.690;2.586;2023-01-25T00:17:17;98151.78;;;3.51;61.81
30873;BME280;17579;42.690;2.586;2023-01-25T00:19:43;98158.69;;;3.52;61.78
30873;BME280;17579;42.690;2.586;2023-01-25T00:22:08;98156.88;;;3.54;61.90
30873;BME280;17579;42.690;2.586;2023-01-25T00:24:34;98148.06;;;3.55;61.95
30873;BME280;17579;42.690;2.586;2023-01-25T00:27:00;98146.31;;;3.55;61.83
30873;BME280;17579;42.690;2.586;2023-01-25T00:29:26;98141.84;;;3.57;61.55
30873;BME280;17579;42.690;2.586;2023-01-25T00:32:18;98137.59;;;3.55;61.85
30873;BME280;17579;42.690;2.586;2023-01-25T00:34:51;98141.59;;;3.62;61.62
30873;BME280;17579;42.690;2.586;2023-01-25T00:37:24;98139.16;;;3.59;61.83
30873;BME280;17579;42.690;2.586;2023-01-25T00:39:52;98136.44;;;3.60;61.47
30873;BME280;17579;42.690;2.586;2023-01-25T00:42:18;98140.19;;;3.56;61.33
30873;BME280;17579;42.690;2.586;2023-01-25T00:44:44;98137.78;;;3.52;61.27
30873;BME280;17579;42.690;2.586;2023-01-25T00:47:10;98136.22;;;3.47;61.13
30873;BME280;17579;42.690;2.586;2023-01-25T00:49:37;98131.25;;;3.43;61.20
30873;BME280;17579;42.690;2.586;2023-01-25T00:52:03;98130.41;;;3.42;61.24
30873;BME280;17579;42.690;2.586;2023-01-25T00:54:29;98129.63;;;3.40;61.00
30873;BME280;17579;42.690;2.586;2023-01-25T00:56:54;98133.28;;;3.38;61.14
30873;BME280;17579;42.690;2.586;2023-01-25T00:59:21;98123.03;;;3.33;61.04
30873;BME280;17579;42.690;2.586;2023-01-25T01:01:48;98125.63;;;3.33;61.16
30873;BME280;17579;42.690;2.586;2023-01-25T01:04:14;98121.34;;;3.32;61.33
30873;BME280;17579;42.690;2.586;2023-01-25T01:06:40;98124.72;;;3.34;61.42
30873;BME280;17579;42.690;2.586;2023-01-25T01:09:10;98127.25;;;3.36;61.42
30873;BME280;17579;42.690;2.586;2023-01-25T01:11:36;98129.50;;;3.43;61.47
30873;BME280;17579;42.690;2.586;2023-01-25T01:14:01;98129.25;;;3.48;61.66
30873;BME280;17579;42.690;2.586;2023-01-25T01:16:27;98128.09;;;3.54;61.55
30873;BME280;17579;42.690;2.586;2023-01-25T01:18:53;98127.84;;;3.58;61.53
30873;BME280;17579;42.690;2.586;2023-01-25T01:21:19;98126.69;;;3.64;61.54
30873;BME280;17579;42.690;2.586;2023-01-25T01:23:45;98134.28;;;3.69;61.43
30873;BME280;17579;42.690;2.586;2023-01-25T01:26:13;98135.97;;;3.70;61.36
30873;BME280;17579;42.690;2.586;2023-01-25T01:28:39;98141.72;;;3.76;61.29
30873;BME280;17579;42.690;2.586;2023-01-25T01:31:09;98137.28;;;3.78;61.23
30873;BME280;17579;42.690;2.586;2023-01-25T01:33:35;98139.63;;;3.83;61.12
30873;BME280;17579;42.690;2.586;2023-01-25T01:36:10;98137.94;;;3.82;61.09
30873;BME280;17579;42.690;2.586;2023-01-25T01:38:36;98136.84;;;3.86;60.84
30873;BME280;17579;42.690;2.586;2023-01-25T01:41:01;98149.19;;;3.84;60.94
30873;BME280;17579;42.690;2.586;2023-01-25T01:43:27;98143.88;;;3.86;60.80
30873;BME280;17579;42.690;2.586;2023-01-25T01:45:58;98138.81;;;3.83;61.00
30873;BME280;17579;42.690;2.586;2023-01-25T01:48:45;98150.28;;;3.80;60.87
30873;BME280;17579;42.690;2.586;2023-01-25T01:51:25;98150.28;;;3.80;61.14
30873;BME280;17579;42.690;2.586;2023-01-25T01:54:14;98140.06;;;3.75;60.95
30873;BME280;17579;42.690;2.586;2023-01-25T01:56:59;98146.19;;;3.74;60.90
30873;BME280;17579;42.690;2.586;2023-01-25T01:59:32;98146.13;;;3.76;60.76
30873;BME280;17579;42.690;2.586;2023-01-25T02:01:59;98146.28;;;3.73;60.76
30873;BME280;17579;42.690;2.586;2023-01-25T02:04:26;98141.13;;;3.71;60.86
30873;BME280;17579;42.690;2.586;2023-01-25T02:06:57;98147.44;;;3.67;60.76
30873;BME280;17579;42.690;2.586;2023-01-25T02:09:25;98148.28;;;3.68;60.99
30873;BME280;17579;42.690;2.586;2023-01-25T02:11:52;98155.28;;;3.67;60.83
30873;BME280;17579;42.690;2.586;2023-01-25T02:14:18;98147.69;;;3.62;60.30
30873;BME280;17579;42.690;2.586;2023-01-25T02:16:45;98153.09;;;3.59;60.60
30873;BME280;17579;42.690;2.586;2023-01-25T02:19:18;98151.56;;;3.55;60.52
30873;BME280;17579;42.690;2.586;2023-01-25T02:21:50;98157.69;;;3.54;60.63
30873;BME280;17579;42.690;2.586;2023-01-25T02:24:23;98158.09;;;3.46;60.63
30873;BME280;17579;42.690;2.586;2023-01-25T02:26:52;98158.03;;;3.48;60.27
30873;BME280;17579;42.690;2.586;2023-01-25T02:29:18;98165.16;;;3.44;60.37
30873;BME280;17579;42.690;2.586;2023-01-25T02:31:47;98166.13;;;3.43;60.65
30873;BME280;17579;42.690;2.586;2023-01-25T02:34:14;98167.03;;;3.42;60.46
30873;BME280;17579;42.690;2.586;2023-01-25T02:36:39;98169.72;;;3.41;60.42
30873;BME280;17579;42.690;2.586;2023-01-25T02:39:12;98168.34;;;3.34;60.59
30873;BME280;17579;42.690;2.586;2023-01-25T02:41:42;98163.94;;;3.34;60.48
30873;BME280;17579;42.690;2.586;2023-01-25T02:44:17;98173.09;;;3.25;60.66
30873;BME280;17579;42.690;2.586;2023-01-25T02:46:44;98170.56;;;3.24;60.53
30873;BME280;17579;42.690;2.586;2023-01-25T02:49:12;98173.41;;;3.19;60.67
30873;BME280;17579;42.690;2.586;2023-01-25T02:51:42;98171.88;;;3.15;60.63
30873;BME280;17579;42.690;2.586;2023-01-25T02:54:10;98175.56;;;3.11;60.70
30873;BME280;17579;42.690;2.586;2023-01-25T02:56:37;98182.69;;;3.07;60.85
30873;BME280;17579;42.690;2.586;2023-01-25T02:59:05;98178.31;;;3.08;60.89
30873;BME280;17579;42.690;2.586;2023-01-25T03:01:36;98183.47;;;3.09;61.11
30873;BME280;17579;42.690;2.586;2023-01-25T03:04:02;98174.25;;;3.20;61.34
30873;BME280;17579;42.690;2.586;2023-01-25T03:06:28;98172.69;;;3.33;61.29
30873;BME280;17579;42.690;2.586;2023-01-25T03:08:53;98160.09;;;3.41;61.04
30873;BME280;17579;42.690;2.586;2023-01-25T03:11:19;98164.16;;;3.47;61.02
30873;BME280;17579;42.690;2.586;2023-01-25T03:13:45;98163.84;;;3.53;60.95
30873;BME280;17579;42.690;2.586;2023-01-25T03:16:12;98165.31;;;3.59;60.87
30873;BME280;17579;42.690;2.586;2023-01-25T03:18:38;98154.84;;;3.59;60.54
30873;BME280;17579;42.690;2.586;2023-01-25T03:21:06;98158.69;;;3.52;60.48
30873;BME280;17579;42.690;2.586;2023-01-25T03:23:32;98152.00;;;3.46;60.28
30873;BME280;17579;42.690;2.586;2023-01-25T03:26:13;98156.03;;;3.36;60.44
30873;BME280;17579;42.690;2.586;2023-01-25T03:28:40;98146.34;;;3.38;60.12
30873;BME280;17579;42.690;2.586;2023-01-25T03:31:08;98146.63;;;3.32;60.08
30873;BME280;17579;42.690;2.586;2023-01-25T03:33:34;98145.97;;;3.28;60.18
30873;BME280;17579;42.690;2.586;2023-01-25T03:36:00;98153.03;;;3.26;60.24
30873;BME280;17579;42.690;2.586;2023-01-25T03:38:26;98158.47;;;3.21;60.21
30873;BME280;17579;42.690;2.586;2023-01-25T03:40:52;98157.03;;;3.16;60.30
30873;BME280;17579;42.690;2.586;2023-01-25T03:43:18;98153.56;;;3.15;60.40
30873;BME280;17579;42.690;2.586;2023-01-25T03:45:44;98154.47;;;3.14;60.21
30873;BME280;17579;42.690;2.586;2023-01-25T03:48:10;98151.13;;;3.12;60.45
30873;BME280;17579;42.690;2.586;2023-01-25T03:50:35;98158.16;;;3.10;60.49
30873;BME280;17579;42.690;2.586;2023-01-25T03:53:01;98152.19;;;3.08;60.35
30873;BME280;17579;42.690;2.586;2023-01-25T03:55:34;98148.72;;;3.07;60.39
30873;BME280;17579;42.690;2.586;2023-01-25T03:58:00;98145.34;;;3.05;60.51
30873;BME280;17579;42.690;2.586;2023-01-25T04:00:26;98142.72;;;3.05;60.55
30873;BME280;17579;42.690;2.586;2023-01-25T04:02:52;98147.19;;;3.03;60.61
30873;BME280;17579;42.690;2.586;2023-01-25T04:05:17;98137.56;;;3.04;60.80
30873;BME280;17579;42.690;2.586;2023-01-25T04:07:43;98133.19;;;3.04;60.95
30873;BME280;17579;42.690;2.586;2023-01-25T04:10:09;98127.94;;;3.04;60.90
30873;BME280;17579;42.690;2.586;2023-01-25T04:12:35;98127.03;;;3.05;61.04
30873;BME280;17579;42.690;2.586;2023-01-25T04:15:00;98127.78;;;3.07;61.21
30873;BME280;17579;42.690;2.586;2023-01-25T04:17:26;98129.50;;;3.08;61.26
30873;BME280;17579;42.690;2.586;2023-01-25T04:19:52;98125.06;;;3.10;61.17
30873;BME280;17579;42.690;2.586;2023-01-25T04:22:17;98135.44;;;3.12;61.24
30873;BME280;17579;42.690;2.586;2023-01-25T04:24:43;98130.13;;;3.14;61.07
30873;BME280;17579;42.690;2.586;2023-01-25T04:27:09;98127.44;;;3.15;61.21
30873;BME280;17579;42.690;2.586;2023-01-25T04:29:35;98120.41;;;3.16;61.12
30873;BME280;17579;42.690;2.586;2023-01-25T04:32:01;98129.19;;;3.15;61.05
30873;BME280;17579;42.690;2.586;2023-01-25T04:34:27;98137.03;;;3.15;61.06
30873;BME280;17579;42.690;2.586;2023-01-25T04:36:52;98127.59;;;3.12;60.95
30873;BME280;17579;42.690;2.586;2023-01-25T04:39:18;98133.72;;;3.11;61.17
30873;BME280;17579;42.690;2.586;2023-01-25T04:41:44;98127.66;;;3.10;61.05
30873;BME280;17579;42.690;2.586;2023-01-25T04:44:10;98128.59;;;3.09;61.05
30873;BME280;17579;42.690;2.586;2023-01-25T04:46:35;98129.50;;;3.08;61.09
30873;BME280;17579;42.690;2.586;2023-01-25T04:49:01;98126.03;;;3.08;61.01
30873;BME280;17579;42.690;2.586;2023-01-25T04:51:27;98118.28;;;3.06;60.87
30873;BME280;17579;42.690;2.586;2023-01-25T04:53:52;98124.59;;;3.02;60.88
30873;BME280;17579;42.690;2.586;2023-01-25T04:56:18;98119.50;;;2.99;61.18
30873;BME280;17579;42.690;2.586;2023-01-25T04:58:44;98112.66;;;2.97;60.94
30873;BME280;17579;42.690;2.586;2023-01-25T05:01:09;98110.97;;;2.95;61.05
30873;BME280;17579;42.690;2.586;2023-01-25T05:03:35;98114.44;;;2.96;61.05
30873;BME280;17579;42.690;2.586;2023-01-25T05:06:01;98105.75;;;2.95;61.19
30873;BME280;17579;42.690;2.586;2023-01-25T05:08:26;98102.22;;;2.97;61.15
30873;BME280;17579;42.690;2.586;2023-01-25T05:10:52;98100.44;;;2.97;61.16
30873;BME280;17579;42.690;2.586;2023-01-25T05:13:18;98103.75;;;3.01;61.39
30873;BME280;17579;42.690;2.586;2023-01-25T05:15:43;98092.38;;;3.02;61.44
30873;BME280;17579;42.690;2.586;2023-01-25T05:18:09;98087.91;;;3.04;61.30
30873;BME280;17579;42.690;2.586;2023-01-25T05:20:35;98088.75;;;3.04;61.47
30873;BME280;17579;42.690;2.586;2023-01-25T05:23:00;98086.06;;;3.06;61.34
30873;BME280;17579;42.690;2.586;2023-01-25T05:25:26;98080.75;;;3.07;61.53
30873;BME280;17579;42.690;2.586;2023-01-25T05:28:07;98079.69;;;3.11;61.22
30873;BME280;17579;42.690;2.586;2023-01-25T05:30:32;98075.91;;;3.17;61.34
30873;BME280;17579;42.690;2.586;2023-01-25T05:32:58;98082.59;;;3.23;61.42
30873;BME280;17579;42.690;2.586;2023-01-25T05:35:24;98080.59;;;3.28;61.47
30873;BME280;17579;42.690;2.586;2023-01-25T05:37:50;98076.81;;;3.34;61.28
30873;BME280;17579;42.690;2.586;2023-01-25T05:40:15;98078.44;;;3.36;61.21
30873;BME280;17579;42.690;2.586;2023-01-25T05:42:41;98074.78;;;3.39;61.20
30873;BME280;17579;42.690;2.586;2023-01-25T05:45:07;98080.81;;;3.41;61.26
30873;BME280;17579;42.690;2.586;2023-01-25T05:47:33;98075.50;;;3.42;61.15
30873;BME280;17579;42.690;2.586;2023-01-25T05:49:59;98081.41;;;3.46;60.94
30873;BME280;17579;42.690;2.586;2023-01-25T05:52:24;98076.94;;;3.48;61.04
30873;BME280;17579;42.690;2.586;2023-01-25T05:54:50;98081.19;;;3.51;60.98
30873;BME280;17579;42.690;2.586;2023-01-25T05:57:16;98073.25;;;3.52;61.02
30873;BME280;17579;42.690;2.586;2023-01-25T05:59:41;98070.53;;;3.54;61.06
30873;BME280;17579;42.690;2.586;2023-01-25T06:02:07;98074.00;;;3.54;61.07
30873;BME280;17579;42.690;2.586;2023-01-25T06:04:33;98076.53;;;3.56;60.79
30873;BME280;17579;42.690;2.586;2023-01-25T06:06:58;98079.06;;;3.57;60.74
30873;BME280;17579;42.690;2.586;2023-01-25T06:09:24;98081.59;;;3.59;60.96
30873;BME280;17579;42.690;2.586;2023-01-25T06:11:51;98082.53;;;3.58;60.78
30873;BME280;17579;42.690;2.586;2023-01-25T06:14:17;98064.22;;;3.58;60.75
30873;BME280;17579;42.690;2.586;2023-01-25T06:16:42;98073.81;;;3.57;60.71
30873;BME280;17579;42.690;2.586;2023-01-25T06:19:11;98073.81;;;3.57;60.38
30873;BME280;17579;42.690;2.586;2023-01-25T06:21:36;98073.75;;;3.59;60.60
30873;BME280;17579;42.690;2.586;2023-01-25T06:24:03;98075.53;;;3.58;60.62
30873;BME280;17579;42.690;2.586;2023-01-25T06:26:29;98078.16;;;3.58;60.58
30873;BME280;17579;42.690;2.586;2023-01-25T06:28:54;98078.91;;;3.60;60.66
30873;BME280;17579;42.690;2.586;2023-01-25T06:31:20;98083.13;;;3.63;60.36
30873;BME280;17579;42.690;2.586;2023-01-25T06:33:50;98074.28;;;3.66;60.53
30873;BME280;17579;42.690;2.586;2023-01-25T06:36:18;98075.97;;;3.67;60.35
30873;BME280;17579;42.690;2.586;2023-01-25T06:38:49;98071.56;;;3.67;60.28
30873;BME280;17579;42.690;2.586;2023-01-25T06:41:16;98070.41;;;3.73;60.22
30873;BME280;17579;42.690;2.586;2023-01-25T06:43:42;98068.53;;;3.75;60.26
30873;BME280;17579;42.690;2.586;2023-01-25T06:46:09;98071.94;;;3.77;60.22
30873;BME280;17579;42.690;2.586;2023-01-25T06:48:36;98063.09;;;3.79;60.16
30873;BME280;17579;42.690;2.586;2023-01-25T06:51:04;98068.22;;;3.81;59.83
30873;BME280;17579;42.690;2.586;2023-01-25T06:53:32;98068.06;;;3.84;59.84
30873;BME280;17579;42.690;2.586;2023-01-25T06:56:00;98062.47;;;3.90;59.87
30873;BME280;17579;42.690;2.586;2023-01-25T06:58:27;98057.16;;;3.92;59.79
30873;BME280;17579;42.690;2.586;2023-01-25T07:00:53;98057.00;;;3.95;59.75
30873;BME280;17579;42.690;2.586;2023-01-25T07:03:23;98055.81;;;4.01;59.57
30873;BME280;17579;42.690;2.586;2023-01-25T07:05:49;98055.63;;;4.04;59.39
30873;BME280;17579;42.690;2.586;2023-01-25T07:08:16;98060.88;;;4.04;59.37
30873;BME280;17579;42.690;2.586;2023-01-25T07:10:41;98064.28;;;4.06;59.31
30873;BME280;17579;42.690;2.586;2023-01-25T07:13:07;98069.41;;;4.07;59.30
30873;BME280;17579;42.690;2.586;2023-01-25T07:15:33;98063.34;;;4.07;59.30
30873;BME280;17579;42.690;2.586;2023-01-25T07:17:58;98058.19;;;4.05;59.22
30873;BME280;17579;42.690;2.586;2023-01-25T07:20:24;98060.03;;;4.03;59.22
30873;BME280;17579;42.690;2.586;2023-01-25T07:22:49;98064.63;;;3.99;59.09
30873;BME280;17579;42.690;2.586;2023-01-25T07:25:15;98066.28;;;4.01;59.08
30873;BME280;17579;42.690;2.586;2023-01-25T07:27:40;98069.59;;;4.04;59.16
30873;BME280;17579;42.690;2.586;2023-01-25T07:30:07;98064.28;;;4.06;59.24
30873;BME280;17579;42.690;2.586;2023-01-25T07:32:32;98060.66;;;4.08;59.01
30873;BME280;17579;42.690;2.586;2023-01-25T07:34:58;98063.94;;;4.12;59.15
30873;BME280;17579;42.690;2.586;2023-01-25T07:37:24;98063.75;;;4.15;59.25
30873;BME280;17579;42.690;2.586;2023-01-25T07:39:52;98064.63;;;4.15;58.98
30873;BME280;17579;42.690;2.586;2023-01-25T07:42:17;98063.66;;;4.16;58.84
30873;BME280;17579;42.690;2.586;2023-01-25T07:44:43;98063.59;;;4.18;58.84
30873;BME280;17579;42.690;2.586;2023-01-25T07:47:08;98066.13;;;4.20;58.94
30873;BME280;17579;42.690;2.586;2023-01-25T07:49:34;98059.94;;;4.21;58.82
30873;BME280;17579;42.690;2.586;2023-01-25T07:52:00;98057.25;;;4.22;59.11
30873;BME280;17579;42.690;2.586;2023-01-25T07:54:26;98065.00;;;4.24;58.78
30873;BME280;17579;42.690;2.586;2023-01-25T07:56:51;98064.94;;;4.25;58.83
30873;BME280;17579;42.690;2.586;2023-01-25T07:59:17;98063.00;;;4.29;58.60
30873;BME280;17579;42.690;2.586;2023-01-25T08:01:43;98059.38;;;4.31;58.48
30873;BME280;17579;42.690;2.586;2023-01-25T08:04:08;98059.44;;;4.30;58.19
30873;BME280;17579;42.690;2.586;2023-01-25T08:06:36;98045.59;;;4.28;58.41
30873;BME280;17579;42.690;2.586;2023-01-25T08:09:12;98043.91;;;4.27;58.31
30873;BME280;17579;42.690;2.586;2023-01-25T08:11:38;98048.28;;;4.26;57.90
30873;BME280;17579;42.690;2.586;2023-01-25T08:14:05;98043.22;;;4.23;58.01
30873;BME280;17579;42.690;2.586;2023-01-25T08:16:31;98045.28;;;4.18;57.93
30873;BME280;17579;42.690;2.586;2023-01-25T08:18:59;98044.84;;;4.10;57.86
30873;BME280;17579;42.690;2.586;2023-01-25T08:21:26;98040.03;;;4.02;57.96
30873;BME280;17579;42.690;2.586;2023-01-25T08:23:57;98036.13;;;3.93;57.77
30873;BME280;17579;42.690;2.586;2023-01-25T08:26:24;98040.63;;;3.91;58.14
30873;BME280;17579;42.690;2.586;2023-01-25T08:28:50;98040.88;;;3.87;58.15
30873;BME280;17579;42.690;2.586;2023-01-25T08:31:20;98034.88;;;3.85;58.14
30873;BME280;17579;42.690;2.586;2023-01-25T08:33:47;98035.81;;;3.84;58.29
30873;BME280;17579;42.690;2.586;2023-01-25T08:36:14;98034.22;;;3.81;58.36
30873;BME280;17579;42.690;2.586;2023-01-25T08:38:41;98037.50;;;3.85;58.38
30873;BME280;17579;42.690;2.586;2023-01-25T08:41:09;98029.72;;;3.83;58.33
30873;BME280;17579;42.690;2.586;2023-01-25T08:43:36;98039.09;;;3.87;58.17
30873;BME280;17579;42.690;2.586;2023-01-25T08:46:02;98037.31;;;3.88;58.09
30873;BME280;17579;42.690;2.586;2023-01-25T08:48:27;98040.78;;;3.88;57.91
30873;BME280;17579;42.690;2.586;2023-01-25T08:50:53;98035.66;;;3.87;58.09
30873;BME280;17579;42.690;2.586;2023-01-25T08:53:19;98040.03;;;3.86;58.13
30873;BME280;17579;42.690;2.586;2023-01-25T08:55:45;98038.19;;;3.88;58.30
30873;BME280;17579;42.690;2.586;2023-01-25T08:58:12;98051.28;;;3.88;58.14
30873;BME280;17579;42.690;2.586;2023-01-25T09:00:39;98041.53;;;3.90;58.08
30873;BME280;17579;42.690;2.586;2023-01-25T09:03:07;98038.00;;;3.91;58.03
30873;BME280;17579;42.690;2.586;2023-01-25T09:05:34;98042.31;;;3.92;58.08
30873;BME280;17579;42.690;2.586;2023-01-25T09:08:01;98036.13;;;3.93;58.02
30873;BME280;17579;42.690;2.586;2023-01-25T09:10:26;98034.31;;;3.95;58.11
30873;BME280;17579;42.690;2.586;2023-01-25T09:12:52;98038.59;;;3.96;57.96
30873;BME280;17579;42.690;2.586;2023-01-25T09:15:18;98036.75;;;3.98;58.39
30873;BME280;17579;42.690;2.586;2023-01-25T09:17:43;98036.41;;;4.05;58.27
30873;BME280;17579;42.690;2.586;2023-01-25T09:20:09;98029.31;;;4.07;57.93
30873;BME280;17579;42.690;2.586;2023-01-25T09:22:35;98024.75;;;4.10;57.94
30873;BME280;17579;42.690;2.586;2023-01-25T09:25:02;98028.13;;;4.12;58.02
30873;BME280;17579;42.690;2.586;2023-01-25T09:27:27;98031.41;;;4.16;58.24
30873;BME280;17579;42.690;2.586;2023-01-25T09:29:53;98016.22;;;4.23;58.29
30873;BME280;17579;42.690;2.586;2023-01-25T09:32:18;98000.22;;;4.27;58.14
30873;BME280;17579;42.690;2.586;2023-01-25T09:34:44;98013.97;;;4.31;58.00
30873;BME280;17579;42.690;2.586;2023-01-25T09:37:10;98011.13;;;4.36;58.07
30873;BME280;17579;42.690;2.586;2023-01-25T09:39:35;98014.22;;;4.42;57.67
30873;BME280;17579;42.690;2.586;2023-01-25T09:48:08;98012.88;;;4.65;57.66
30873;BME280;17579;42.690;2.586;2023-01-25T09:53:38;98014.63;;;4.81;57.87
30873;BME280;17579;42.690;2.586;2023-01-25T09:56:12;98010.50;;;4.91;57.67
30873;BME280;17579;42.690;2.586;2023-01-25T09:58:44;98001.28;;;5.00;57.68
30873;BME280;17579;42.690;2.586;2023-01-25T10:01:40;98005.28;;;5.06;57.83
30873;BME280;17579;42.690;2.586;2023-01-25T10:04:16;97997.44;;;5.20;57.41
30873;BME280;17579;42.690;2.586;2023-01-25T10:06:43;97996.16;;;5.27;57.16
30873;BME280;17579;42.690;2.586;2023-01-25T10:12:12;97984.59;;;5.44;56.98
30873;BME280;17579;42.690;2.586;2023-01-25T10:14:39;97986.84;;;5.50;56.67
30873;BME280;17579;42.690;2.586;2023-01-25T10:17:10;97974.38;;;5.54;56.51
30873;BME280;17579;42.690;2.586;2023-01-25T10:20:02;97967.28;;;5.56;56.48
30873;BME280;17579;42.690;2.586;2023-01-25T10:22:35;97975.78;;;5.60;56.02
30873;BME280;17579;42.690;2.586;2023-01-25T10:25:22;97962.09;;;5.54;56.25
30873;BME280;17579;42.690;2.586;2023-01-25T10:28:22;97969.59;;;5.61;56.36
30873;BME280;17579;42.690;2.586;2023-01-25T10:30:58;97947.19;;;5.69;55.98
30873;BME280;17579;42.690;2.586;2023-01-25T10:33:26;97952.13;;;5.74;55.44
30873;BME280;17579;42.690;2.586;2023-01-25T10:35:54;97960.75;;;5.76;55.38
30873;BME280;17579;42.690;2.586;2023-01-25T10:38:31;97943.31;;;5.75;55.66
30873;BME280;17579;42.690;2.586;2023-01-25T10:41:06;97946.69;;;5.77;55.60
30873;BME280;17579;42.690;2.586;2023-01-25T10:43:35;97926.69;;;5.89;55.82
30873;BME280;17579;42.690;2.586;2023-01-25T10:46:01;97946.09;;;6.01;55.74
30873;BME280;17579;42.690;2.586;2023-01-25T10:48:30;97922.59;;;6.12;55.53
30873;BME280;17579;42.690;2.586;2023-01-25T10:50:57;97922.75;;;6.23;54.89
30873;BME280;17579;42.690;2.586;2023-01-25T10:53:33;97928.81;;;6.24;55.53
30873;BME280;17579;42.690;2.586;2023-01-25T10:56:22;97921.91;;;6.36;55.44
30873;BME280;17579;42.690;2.586;2023-01-25T10:58:52;97921.94;;;6.49;54.77
30873;BME280;17579;42.690;2.586;2023-01-25T11:01:31;97906.50;;;6.57;54.51
30873;BME280;17579;42.690;2.586;2023-01-25T11:03:58;97919.66;;;6.70;54.64
30873;BME280;17579;42.690;2.586;2023-01-25T11:06:36;97902.72;;;6.74;54.54
30873;BME280;17579;42.690;2.586;2023-01-25T11:12:17;97890.50;;;6.86;53.99
30873;BME280;17579;42.690;2.586;2023-01-25T11:14:44;97888.09;;;6.96;53.46
30873;BME280;17579;42.690;2.586;2023-01-25T11:17:30;97878.72;;;6.91;53.97
30873;BME280;17579;42.690;2.586;2023-01-25T11:20:17;97862.00;;;7.05;53.71
30873;BME280;17579;42.690;2.586;2023-01-25T11:22:52;97872.38;;;7.20;53.66
30873;BME280;17579;42.690;2.586;2023-01-25T11:25:25;97859.59;;;7.26;53.38
30873;BME280;17579;42.690;2.586;2023-01-25T11:27:50;97853.81;;;7.34;53.21
30873;BME280;17579;42.690;2.586;2023-01-25T11:30:17;97851.69;;;7.39;52.69
30873;BME280;17579;42.690;2.586;2023-01-25T11:32:43;97852.19;;;7.44;52.65
30873;BME280;17579;42.690;2.586;2023-01-25T11:35:25;97844.06;;;7.48;53.13
30873;BME280;17579;42.690;2.586;2023-01-25T11:38:01;97841.28;;;7.62;52.14
30873;BME280;17579;42.690;2.586;2023-01-25T11:40:47;97827.78;;;7.67;52.21
30873;BME280;17579;42.690;2.586;2023-01-25T11:46:30;97818.28;;;7.88;51.62
30873;BME280;17579;42.690;2.586;2023-01-25T11:49:17;97813.16;;;7.98;51.97
30873;BME280;17579;42.690;2.586;2023-01-25T11:57:35;97795.06;;;8.29;51.50
30873;BME280;17579;42.690;2.586;2023-01-25T12:06:23;97781.91;;;8.52;50.31
30873;BME280;17579;42.690;2.586;2023-01-25T12:09:07;97777.00;;;8.58;50.69
30873;BME280;17579;42.690;2.586;2023-01-25T12:17:36;97760.94;;;8.73;49.78
30873;BME280;17579;42.690;2.586;2023-01-25T12:23:26;97745.69;;;8.76;49.47
30873;BME280;17579;42.690;2.586;2023-01-25T12:26:11;97743.28;;;8.84;49.35
30873;BME280;17579;42.690;2.586;2023-01-25T12:28:45;97741.66;;;8.83;48.79
30873;BME280;17579;42.690;2.586;2023-01-25T12:31:27;97726.16;;;8.79;48.71
30873;BME280;17579;42.690;2.586;2023-01-25T12:34:15;97726.53;;;8.74;49.10
30873;BME280;17579;42.690;2.586;2023-01-25T12:36:45;97730.59;;;8.78;48.82
30873;BME280;17579;42.690;2.586;2023-01-25T12:39:22;97716.59;;;8.78;48.47
30873;BME280;17579;42.690;2.586;2023-01-25T12:41:54;97710.22;;;8.80;48.66
30873;BME280;17579;42.690;2.586;2023-01-25T12:44:43;97700.66;;;8.79;48.73
30873;BME280;17579;42.690;2.586;2023-01-25T12:47:34;97689.34;;;8.77;49.18
30873;BME280;17579;42.690;2.586;2023-01-25T12:50:28;97694.25;;;8.82;48.90
30873;BME280;17579;42.690;2.586;2023-01-25T12:53:03;97685.53;;;8.81;48.23
30873;BME280;17579;42.690;2.586;2023-01-25T12:55:32;97689.22;;;8.79;48.22
30873;BME280;17579;42.690;2.586;2023-01-25T12:58:23;97682.78;;;8.72;48.55
30873;BME280;17579;42.690;2.586;2023-01-25T13:01:03;97675.13;;;8.69;48.17
30873;BME280;17579;42.690;2.586;2023-01-25T13:03:58;97661.56;;;8.62;47.91
30873;BME280;17579;42.690;2.586;2023-01-25T13:06:45;97676.44;;;8.52;47.82
30873;BME280;17579;42.690;2.586;2023-01-25T13:09:34;97667.44;;;8.43;48.20
30873;BME280;17579;42.690;2.586;2023-01-25T13:12:04;97669.88;;;8.46;47.71
30873;BME280;17579;42.690;2.586;2023-01-25T13:14:38;97666.00;;;8.39;48.07
30873;BME280;17579;42.690;2.586;2023-01-25T13:17:30;97662.91;;;8.33;48.57
30873;BME280;17579;42.690;2.586;2023-01-25T13:19:57;97656.56;;;8.36;47.55
30873;BME280;17579;42.690;2.586;2023-01-25T13:25:23;97659.66;;;8.19;47.76
30873;BME280;17579;42.690;2.586;2023-01-25T13:27:49;97660.75;;;8.05;47.64
30873;BME280;17579;42.690;2.586;2023-01-25T13:30:31;97655.09;;;7.75;47.97
30873;BME280;17579;42.690;2.586;2023-01-25T13:33:01;97652.78;;;7.59;48.15
30873;BME280;17579;42.690;2.586;2023-01-25T13:35:42;97654.22;;;7.52;48.94
30873;BME280;17579;42.690;2.586;2023-01-25T13:38:25;97653.53;;;7.61;48.92
30873;BME280;17579;42.690;2.586;2023-01-25T13:41:05;97650.78;;;7.63;48.77
30873;BME280;17579;42.690;2.586;2023-01-25T13:43:38;97646.56;;;7.49;48.19
30873;BME280;17579;42.690;2.586;2023-01-25T13:46:05;97650.41;;;7.21;48.60
30873;BME280;17579;42.690;2.586;2023-01-25T13:48:34;97642.88;;;7.16;49.21
30873;BME280;17579;42.690;2.586;2023-01-25T13:51:08;97649.34;;;7.23;49.21
30873;BME280;17579;42.690;2.586;2023-01-25T13:53:36;97652.38;;;7.30;49.18
30873;BME280;17579;42.690;2.586;2023-01-25T13:56:04;97633.84;;;7.32;49.32
30873;BME280;17579;42.690;2.586;2023-01-25T13:58:34;97636.22;;;7.35;49.63
30873;BME280;17579;42.690;2.586;2023-01-25T14:01:13;97632.19;;;7.42;49.22
30873;BME280;17579;42.690;2.586;2023-01-25T14:03:46;97636.16;;;7.48;49.41